sensor_id;sensor_type;location;lat;lon;timestamp;temperature;humidity
51327;DHT22;37412;52.836;6.362;2023-08-07T00:01:48;15.00;99.90
51327;DHT22;37412;52.836;6.362;2023-08-07T00:04:34;15.00;99.90
51327;DHT22;37412;52.836;6.362;2023-08-07T00:07:20;15.00;99.90
51327;DHT22;37412;52.836;6.362;2023-08-07T00:10:07;15.00;99.90
51327;DHT22;37412;52.836;6.362;2023-08-07T00:12:53;15.00;99.90
51327;DHT22;37412;52.836;6.362;2023-08-07T00:15:39;15.00;99.90
51327;DHT22;37412;52.836;6.362;2023-08-07T00:18:25;15.00;99.90
51327;DHT22;37412;52.836;6.362;2023-08-07T00:21:11;15.10;99.90
51327;DHT22;37412;52.836;6.362;2023-08-07T00:23:57;15.00;99.90
51327;DHT22;37412;52.836;6.362;2023-08-07T00:26:43;15.00;99.90
51327;DHT22;37412;52.836;6.362;2023-08-07T00:29:29;15.00;99.90
51327;DHT22;37412;52.836;6.362;2023-08-07T00:32:15;15.10;99.90
51327;DHT22;37412;52.836;6.362;2023-08-07T00:35:01;15.00;99.90
51327;DHT22;37412;52.836;6.362;2023-08-07T00:37:47;15.00;99.90
51327;DHT22;37412;52.836;6.362;2023-08-07T00:40:37;15.10;99.90
51327;DHT22;37412;52.836;6.362;2023-08-07T00:43:23;15.00;99.90
51327;DHT22;37412;52.836;6.362;2023-08-07T00:46:09;15.00;99.90
51327;DHT22;37412;52.836;6.362;2023-08-07T00:48:56;15.00;99.90
51327;DHT22;37412;52.836;6.362;2023-08-07T00:51:42;14.90;99.90
51327;DHT22;37412;52.836;6.362;2023-08-07T00:54:28;15.00;99.90
51327;DHT22;37412;52.836;6.362;2023-08-07T00:57:15;15.00;99.90
51327;DHT22;37412;52.836;6.362;2023-08-07T01:00:02;14.90;99.90
51327;DHT22;37412;52.836;6.362;2023-08-07T01:02:49;14.90;99.90
51327;DHT22;37412;52.836;6.362;2023-08-07T01:05:36;15.00;99.90
51327;DHT22;37412;52.836;6.362;2023-08-07T01:08:24;14.90;99.90
51327;DHT22;37412;52.836;6.362;2023-08-07T01:11:22;15.00;99.90
51327;DHT22;37412;52.836;6.362;2023-08-07T01:17:29;14.90;99.90
51327;DHT22;37412;52.836;6.362;2023-08-07T01:20:15;14.90;99.90
51327;DHT22;37412;52.836;6.362;2023-08-07T01:23:01;14.90;99.90
51327;DHT22;37412;52.836;6.362;2023-08-07T01:25:47;14.80;99.90
51327;DHT22;37412;52.836;6.362;2023-08-07T01:28:37;14.80;99.90
51327;DHT22;37412;52.836;6.362;2023-08-07T01:31:24;14.80;99.90
51327;DHT22;37412;52.836;6.362;2023-08-07T01:34:16;14.80;99.90
51327;DHT22;37412;52.836;6.362;2023-08-07T01:37:06;14.80;99.90
51327;DHT22;37412;52.836;6.362;2023-08-07T01:39:53;14.80;99.90
51327;DHT22;37412;52.836;6.362;2023-08-07T01:42:40;14.90;99.90
51327;DHT22;37412;52.836;6.362;2023-08-07T01:45:28;14.90;99.90
51327;DHT22;37412;52.836;6.362;2023-08-07T01:48:14;14.80;99.90
51327;DHT22;37412;52.836;6.362;2023-08-07T01:51:00;14.70;99.90
51327;DHT22;37412;52.836;6.362;2023-08-07T01:53:46;14.80;99.90
51327;DHT22;37412;52.836;6.362;2023-08-07T01:56:33;14.70;99.90
51327;DHT22;37412;52.836;6.362;2023-08-07T01:59:19;14.70;99.90
51327;DHT22;37412;52.836;6.362;2023-08-07T02:02:05;14.60;99.90
51327;DHT22;37412;52.836;6.362;2023-08-07T02:04:51;14.60;99.90
51327;DHT22;37412;52.836;6.362;2023-08-07T02:07:37;14.60;99.90
51327;DHT22;37412;52.836;6.362;2023-08-07T02:10:23;14.60;99.90
51327;DHT22;37412;52.836;6.362;2023-08-07T02:13:09;14.60;99.90
51327;DHT22;37412;52.836;6.362;2023-08-07T02:15:54;14.60;99.90
51327;DHT22;37412;52.836;6.362;2023-08-07T02:18:40;14.50;99.90
51327;DHT22;37412;52.836;6.362;2023-08-07T02:21:26;14.50;99.90
51327;DHT22;37412;52.836;6.362;2023-08-07T02:24:12;14.40;99.90
51327;DHT22;37412;52.836;6.362;2023-08-07T02:26:59;14.40;99.90
51327;DHT22;37412;52.836;6.362;2023-08-07T02:29:45;14.40;99.90
51327;DHT22;37412;52.836;6.362;2023-08-07T02:32:31;14.40;99.90
51327;DHT22;37412;52.836;6.362;2023-08-07T02:35:17;14.40;99.90
51327;DHT22;37412;52.836;6.362;2023-08-07T02:38:03;14.40;99.90
51327;DHT22;37412;52.836;6.362;2023-08-07T02:40:48;14.40;99.90
51327;DHT22;37412;52.836;6.362;2023-08-07T02:43:34;14.40;99.90
51327;DHT22;37412;52.836;6.362;2023-08-07T02:46:20;14.30;99.90
51327;DHT22;37412;52.836;6.362;2023-08-07T02:49:06;14.40;99.90
51327;DHT22;37412;52.836;6.362;2023-08-07T02:51:52;14.30;99.90
51327;DHT22;37412;52.836;6.362;2023-08-07T02:54:38;14.30;99.90
51327;DHT22;37412;52.836;6.362;2023-08-07T02:57:24;14.30;99.90
51327;DHT22;37412;52.836;6.362;2023-08-07T03:00:11;14.30;99.90
51327;DHT22;37412;52.836;6.362;2023-08-07T03:02:57;14.40;99.90
51327;DHT22;37412;52.836;6.362;2023-08-07T03:05:50;14.40;99.90
51327;DHT22;37412;52.836;6.362;2023-08-07T03:08:36;14.30;99.90
51327;DHT22;37412;52.836;6.362;2023-08-07T03:11:22;14.40;99.90
51327;DHT22;37412;52.836;6.362;2023-08-07T03:14:08;14.30;99.90
51327;DHT22;37412;52.836;6.362;2023-08-07T03:16:54;14.40;99.90
51327;DHT22;37412;52.836;6.362;2023-08-07T03:19:42;14.30;99.90
51327;DHT22;37412;52.836;6.362;2023-08-07T03:22:28;14.30;99.90
51327;DHT22;37412;52.836;6.362;2023-08-07T03:25:14;14.30;99.90
51327;DHT22;37412;52.836;6.362;2023-08-07T03:28:00;14.30;99.90
51327;DHT22;37412;52.836;6.362;2023-08-07T03:30:46;14.30;99.90
51327;DHT22;37412;52.836;6.362;2023-08-07T03:33:32;14.20;99.90
51327;DHT22;37412;52.836;6.362;2023-08-07T03:36:18;14.30;99.90
51327;DHT22;37412;52.836;6.362;2023-08-07T03:39:03;14.20;99.90
51327;DHT22;37412;52.836;6.362;2023-08-07T03:41:49;14.20;99.90
51327;DHT22;37412;52.836;6.362;2023-08-07T03:44:35;14.30;99.90
51327;DHT22;37412;52.836;6.362;2023-08-07T03:47:21;14.40;99.90
51327;DHT22;37412;52.836;6.362;2023-08-07T03:50:07;14.30;99.90
51327;DHT22;37412;52.836;6.362;2023-08-07T03:52:53;14.30;99.90
51327;DHT22;37412;52.836;6.362;2023-08-07T03:55:39;13.90;99.90
51327;DHT22;37412;52.836;6.362;2023-08-07T03:58:26;14.40;99.90
51327;DHT22;37412;52.836;6.362;2023-08-07T04:01:12;14.40;99.90
51327;DHT22;37412;52.836;6.362;2023-08-07T04:03:58;14.40;99.90
51327;DHT22;37412;52.836;6.362;2023-08-07T04:06:44;14.40;99.90
51327;DHT22;37412;52.836;6.362;2023-08-07T04:09:31;14.30;99.90
51327;DHT22;37412;52.836;6.362;2023-08-07T04:12:17;14.30;99.90
51327;DHT22;37412;52.836;6.362;2023-08-07T04:15:03;15.30;99.90
51327;DHT22;37412;52.836;6.362;2023-08-07T04:17:49;14.40;99.90
51327;DHT22;37412;52.836;6.362;2023-08-07T04:20:35;14.50;99.90
51327;DHT22;37412;52.836;6.362;2023-08-07T04:23:22;14.40;99.90
51327;DHT22;37412;52.836;6.362;2023-08-07T04:26:08;14.30;99.90
51327;DHT22;37412;52.836;6.362;2023-08-07T04:28:54;14.40;99.90
51327;DHT22;37412;52.836;6.362;2023-08-07T04:31:40;14.40;99.90
51327;DHT22;37412;52.836;6.362;2023-08-07T04:34:25;14.40;99.90
51327;DHT22;37412;52.836;6.362;2023-08-07T04:37:11;14.40;99.90
51327;DHT22;37412;52.836;6.362;2023-08-07T04:39:57;14.40;99.90
51327;DHT22;37412;52.836;6.362;2023-08-07T04:42:43;14.40;99.90
51327;DHT22;37412;52.836;6.362;2023-08-07T04:45:29;14.50;99.90
51327;DHT22;37412;52.836;6.362;2023-08-07T04:48:15;14.40;99.90
51327;DHT22;37412;52.836;6.362;2023-08-07T04:51:02;14.50;99.90
51327;DHT22;37412;52.836;6.362;2023-08-07T04:53:47;14.50;99.90
51327;DHT22;37412;52.836;6.362;2023-08-07T04:56:36;14.50;99.90
51327;DHT22;37412;52.836;6.362;2023-08-07T04:59:23;14.50;99.90
51327;DHT22;37412;52.836;6.362;2023-08-07T05:02:09;14.50;99.90
51327;DHT22;37412;52.836;6.362;2023-08-07T05:04:54;14.50;99.90
51327;DHT22;37412;52.836;6.362;2023-08-07T05:07:41;14.50;99.90
51327;DHT22;37412;52.836;6.362;2023-08-07T05:10:27;14.50;99.90
51327;DHT22;37412;52.836;6.362;2023-08-07T05:13:13;14.50;99.90
51327;DHT22;37412;52.836;6.362;2023-08-07T05:16:02;14.50;99.90
51327;DHT22;37412;52.836;6.362;2023-08-07T05:18:48;14.50;99.90
51327;DHT22;37412;52.836;6.362;2023-08-07T05:21:34;14.50;99.90
51327;DHT22;37412;52.836;6.362;2023-08-07T05:24:20;14.50;99.90
51327;DHT22;37412;52.836;6.362;2023-08-07T05:27:07;14.50;99.90
51327;DHT22;37412;52.836;6.362;2023-08-07T05:29:53;14.50;99.90
51327;DHT22;37412;52.836;6.362;2023-08-07T05:32:40;14.50;99.90
51327;DHT22;37412;52.836;6.362;2023-08-07T05:35:25;14.50;99.90
51327;DHT22;37412;52.836;6.362;2023-08-07T05:38:11;14.50;99.90
51327;DHT22;37412;52.836;6.362;2023-08-07T05:40:57;14.50;99.90
51327;DHT22;37412;52.836;6.362;2023-08-07T05:43:45;14.50;99.90
51327;DHT22;37412;52.836;6.362;2023-08-07T05:46:31;14.50;99.90
51327;DHT22;37412;52.836;6.362;2023-08-07T05:49:17;14.40;99.90
51327;DHT22;37412;52.836;6.362;2023-08-07T05:52:06;14.50;99.90
51327;DHT22;37412;52.836;6.362;2023-08-07T05:54:52;14.40;99.90
51327;DHT22;37412;52.836;6.362;2023-08-07T05:57:38;14.50;99.90
51327;DHT22;37412;52.836;6.362;2023-08-07T06:00:24;14.60;99.90
51327;DHT22;37412;52.836;6.362;2023-08-07T06:03:10;14.60;99.90
51327;DHT22;37412;52.836;6.362;2023-08-07T06:05:56;14.70;99.90
51327;DHT22;37412;52.836;6.362;2023-08-07T06:08:42;14.80;99.90
51327;DHT22;37412;52.836;6.362;2023-08-07T06:11:28;14.90;99.90
51327;DHT22;37412;52.836;6.362;2023-08-07T06:14:14;14.90;99.90
51327;DHT22;37412;52.836;6.362;2023-08-07T06:17:00;14.80;99.90
51327;DHT22;37412;52.836;6.362;2023-08-07T06:19:47;15.00;99.90
51327;DHT22;37412;52.836;6.362;2023-08-07T06:22:33;15.00;99.90
51327;DHT22;37412;52.836;6.362;2023-08-07T06:25:19;15.00;99.90
51327;DHT22;37412;52.836;6.362;2023-08-07T06:28:07;14.90;99.90
51327;DHT22;37412;52.836;6.362;2023-08-07T06:30:54;14.80;99.90
51327;DHT22;37412;52.836;6.362;2023-08-07T06:33:45;14.80;99.90
51327;DHT22;37412;52.836;6.362;2023-08-07T06:36:31;14.70;99.90
51327;DHT22;37412;52.836;6.362;2023-08-07T06:39:17;14.60;99.90
51327;DHT22;37412;52.836;6.362;2023-08-07T06:42:03;14.60;99.90
51327;DHT22;37412;52.836;6.362;2023-08-07T06:44:49;14.60;99.90
51327;DHT22;37412;52.836;6.362;2023-08-07T06:47:35;14.60;99.90
51327;DHT22;37412;52.836;6.362;2023-08-07T06:50:21;14.60;99.90
51327;DHT22;37412;52.836;6.362;2023-08-07T06:53:07;14.60;99.90
51327;DHT22;37412;52.836;6.362;2023-08-07T06:55:53;14.60;99.90
51327;DHT22;37412;52.836;6.362;2023-08-07T06:58:39;14.70;99.90
51327;DHT22;37412;52.836;6.362;2023-08-07T07:01:25;14.70;99.90
51327;DHT22;37412;52.836;6.362;2023-08-07T07:04:11;14.90;99.90
51327;DHT22;37412;52.836;6.362;2023-08-07T07:06:57;14.90;99.90
51327;DHT22;37412;52.836;6.362;2023-08-07T07:09:45;15.00;99.90
51327;DHT22;37412;52.836;6.362;2023-08-07T07:12:31;15.10;99.90
51327;DHT22;37412;52.836;6.362;2023-08-07T07:15:17;15.10;99.90
51327;DHT22;37412;52.836;6.362;2023-08-07T07:18:03;15.20;99.90
51327;DHT22;37412;52.836;6.362;2023-08-07T07:20:57;15.20;99.90
51327;DHT22;37412;52.836;6.362;2023-08-07T07:23:43;15.20;99.90
51327;DHT22;37412;52.836;6.362;2023-08-07T07:26:29;15.30;99.90
51327;DHT22;37412;52.836;6.362;2023-08-07T07:29:17;15.70;99.90
51327;DHT22;37412;52.836;6.362;2023-08-07T07:32:04;16.20;99.90
51327;DHT22;37412;52.836;6.362;2023-08-07T07:34:50;16.30;99.90
51327;DHT22;37412;52.836;6.362;2023-08-07T07:37:36;16.30;99.90
51327;DHT22;37412;52.836;6.362;2023-08-07T07:40:22;16.20;99.90
51327;DHT22;37412;52.836;6.362;2023-08-07T07:43:08;16.00;99.90
51327;DHT22;37412;52.836;6.362;2023-08-07T07:45:54;15.90;99.90
51327;DHT22;37412;52.836;6.362;2023-08-07T07:48:39;16.50;99.90
51327;DHT22;37412;52.836;6.362;2023-08-07T07:51:25;15.40;99.90
51327;DHT22;37412;52.836;6.362;2023-08-07T07:54:11;15.20;99.90
51327;DHT22;37412;52.836;6.362;2023-08-07T07:56:57;15.50;99.90
51327;DHT22;37412;52.836;6.362;2023-08-07T07:59:43;15.30;99.90
51327;DHT22;37412;52.836;6.362;2023-08-07T08:02:29;15.50;99.90
51327;DHT22;37412;52.836;6.362;2023-08-07T08:05:15;15.70;99.90
51327;DHT22;37412;52.836;6.362;2023-08-07T08:08:01;16.10;99.90
51327;DHT22;37412;52.836;6.362;2023-08-07T08:10:47;16.60;99.90
51327;DHT22;37412;52.836;6.362;2023-08-07T08:13:33;17.00;99.90
51327;DHT22;37412;52.836;6.362;2023-08-07T08:16:21;17.50;99.90
51327;DHT22;37412;52.836;6.362;2023-08-07T08:19:07;17.70;99.90
51327;DHT22;37412;52.836;6.362;2023-08-07T08:21:55;18.20;99.90
51327;DHT22;37412;52.836;6.362;2023-08-07T08:24:41;18.70;99.90
51327;DHT22;37412;52.836;6.362;2023-08-07T08:27:27;19.00;99.90
51327;DHT22;37412;52.836;6.362;2023-08-07T08:30:13;18.80;99.90
51327;DHT22;37412;52.836;6.362;2023-08-07T08:32:59;18.30;99.90
51327;DHT22;37412;52.836;6.362;2023-08-07T08:35:44;17.70;99.90
51327;DHT22;37412;52.836;6.362;2023-08-07T08:38:30;17.20;99.90
51327;DHT22;37412;52.836;6.362;2023-08-07T08:41:19;17.00;99.90
51327;DHT22;37412;52.836;6.362;2023-08-07T08:44:07;16.90;99.90
51327;DHT22;37412;52.836;6.362;2023-08-07T08:46:56;16.90;99.90
51327;DHT22;37412;52.836;6.362;2023-08-07T08:49:47;16.80;99.90
51327;DHT22;37412;52.836;6.362;2023-08-07T08:52:34;16.70;99.90
51327;DHT22;37412;52.836;6.362;2023-08-07T08:55:22;16.70;99.90
51327;DHT22;37412;52.836;6.362;2023-08-07T08:58:08;17.10;99.90
51327;DHT22;37412;52.836;6.362;2023-08-07T09:00:54;16.90;99.90
51327;DHT22;37412;52.836;6.362;2023-08-07T09:03:40;17.10;99.90
51327;DHT22;37412;52.836;6.362;2023-08-07T09:06:27;17.20;99.90
51327;DHT22;37412;52.836;6.362;2023-08-07T09:09:17;17.20;99.90
51327;DHT22;37412;52.836;6.362;2023-08-07T09:12:03;17.50;99.90
51327;DHT22;37412;52.836;6.362;2023-08-07T09:14:59;17.80;99.90
51327;DHT22;37412;52.836;6.362;2023-08-07T09:17:46;18.30;99.90
51327;DHT22;37412;52.836;6.362;2023-08-07T09:20:34;18.70;99.90
51327;DHT22;37412;52.836;6.362;2023-08-07T09:23:20;19.00;99.90
51327;DHT22;37412;52.836;6.362;2023-08-07T09:26:07;19.10;99.90
51327;DHT22;37412;52.836;6.362;2023-08-07T09:28:54;19.50;99.90
51327;DHT22;37412;52.836;6.362;2023-08-07T09:31:43;19.40;99.90
51327;DHT22;37412;52.836;6.362;2023-08-07T09:34:31;19.50;99.90
51327;DHT22;37412;52.836;6.362;2023-08-07T09:37:17;19.50;99.90
51327;DHT22;37412;52.836;6.362;2023-08-07T09:40:03;19.30;99.90
51327;DHT22;37412;52.836;6.362;2023-08-07T09:42:51;19.10;99.90
51327;DHT22;37412;52.836;6.362;2023-08-07T09:45:40;18.80;99.90
51327;DHT22;37412;52.836;6.362;2023-08-07T09:48:26;18.40;99.90
51327;DHT22;37412;52.836;6.362;2023-08-07T09:51:13;18.20;99.90
51327;DHT22;37412;52.836;6.362;2023-08-07T09:53:59;18.20;99.90
51327;DHT22;37412;52.836;6.362;2023-08-07T09:56:46;18.40;99.90
51327;DHT22;37412;52.836;6.362;2023-08-07T09:59:34;18.40;99.90
51327;DHT22;37412;52.836;6.362;2023-08-07T10:02:20;18.60;99.90
51327;DHT22;37412;52.836;6.362;2023-08-07T10:05:09;18.40;99.90
51327;DHT22;37412;52.836;6.362;2023-08-07T10:07:55;18.40;99.90
51327;DHT22;37412;52.836;6.362;2023-08-07T10:10:43;18.50;99.90
51327;DHT22;37412;52.836;6.362;2023-08-07T10:13:30;18.50;99.90
51327;DHT22;37412;52.836;6.362;2023-08-07T10:16:16;18.40;99.90
51327;DHT22;37412;52.836;6.362;2023-08-07T10:19:01;18.10;99.90
51327;DHT22;37412;52.836;6.362;2023-08-07T10:21:48;18.00;99.90
51327;DHT22;37412;52.836;6.362;2023-08-07T10:24:36;18.10;99.90
51327;DHT22;37412;52.836;6.362;2023-08-07T10:27:27;18.20;99.90
51327;DHT22;37412;52.836;6.362;2023-08-07T10:30:19;18.20;99.90
51327;DHT22;37412;52.836;6.362;2023-08-07T10:33:06;18.00;99.90
51327;DHT22;37412;52.836;6.362;2023-08-07T10:35:53;17.80;99.90
51327;DHT22;37412;52.836;6.362;2023-08-07T10:38:38;17.70;99.90
51327;DHT22;37412;52.836;6.362;2023-08-07T10:41:24;17.80;99.90
51327;DHT22;37412;52.836;6.362;2023-08-07T10:44:39;17.50;99.90
51327;DHT22;37412;52.836;6.362;2023-08-07T10:47:33;17.30;99.90
51327;DHT22;37412;52.836;6.362;2023-08-07T10:50:27;17.30;99.90
51327;DHT22;37412;52.836;6.362;2023-08-07T10:53:30;17.40;99.90
51327;DHT22;37412;52.836;6.362;2023-08-07T10:56:19;17.60;99.90
51327;DHT22;37412;52.836;6.362;2023-08-07T10:59:14;17.90;99.90
51327;DHT22;37412;52.836;6.362;2023-08-07T11:02:00;17.70;99.90
51327;DHT22;37412;52.836;6.362;2023-08-07T11:04:46;17.70;99.90
51327;DHT22;37412;52.836;6.362;2023-08-07T11:07:32;17.60;99.90
51327;DHT22;37412;52.836;6.362;2023-08-07T11:10:18;17.60;99.90
51327;DHT22;37412;52.836;6.362;2023-08-07T11:13:04;17.70;99.90
51327;DHT22;37412;52.836;6.362;2023-08-07T11:15:50;17.80;99.90
51327;DHT22;37412;52.836;6.362;2023-08-07T11:18:37;17.90;99.90
51327;DHT22;37412;52.836;6.362;2023-08-07T11:21:26;18.00;99.90
51327;DHT22;37412;52.836;6.362;2023-08-07T11:24:13;18.00;99.90
51327;DHT22;37412;52.836;6.362;2023-08-07T11:26:59;18.00;99.90
51327;DHT22;37412;52.836;6.362;2023-08-07T11:29:48;18.10;99.90
51327;DHT22;37412;52.836;6.362;2023-08-07T11:32:34;18.30;99.90
51327;DHT22;37412;52.836;6.362;2023-08-07T11:35:20;18.40;99.90
51327;DHT22;37412;52.836;6.362;2023-08-07T11:38:07;18.30;99.90
51327;DHT22;37412;52.836;6.362;2023-08-07T11:40:53;18.20;99.90
51327;DHT22;37412;52.836;6.362;2023-08-07T11:43:40;18.10;99.90
51327;DHT22;37412;52.836;6.362;2023-08-07T11:46:26;18.10;99.90
51327;DHT22;37412;52.836;6.362;2023-08-07T11:49:12;18.10;99.90
51327;DHT22;37412;52.836;6.362;2023-08-07T11:51:58;18.10;99.90
51327;DHT22;37412;52.836;6.362;2023-08-07T11:54:47;18.00;99.90
51327;DHT22;37412;52.836;6.362;2023-08-07T11:57:34;18.00;99.90
51327;DHT22;37412;52.836;6.362;2023-08-07T12:00:20;18.00;99.90
51327;DHT22;37412;52.836;6.362;2023-08-07T12:03:29;18.00;99.90
51327;DHT22;37412;52.836;6.362;2023-08-07T12:06:16;18.10;99.90
51327;DHT22;37412;52.836;6.362;2023-08-07T12:09:02;18.20;99.90
51327;DHT22;37412;52.836;6.362;2023-08-07T12:11:48;18.40;99.90
51327;DHT22;37412;52.836;6.362;2023-08-07T12:14:35;18.40;99.90
51327;DHT22;37412;52.836;6.362;2023-08-07T12:17:21;18.20;99.90
51327;DHT22;37412;52.836;6.362;2023-08-07T12:20:07;18.00;99.90
51327;DHT22;37412;52.836;6.362;2023-08-07T12:22:56;17.90;99.90
51327;DHT22;37412;52.836;6.362;2023-08-07T12:25:42;17.70;99.90
51327;DHT22;37412;52.836;6.362;2023-08-07T12:28:28;17.60;99.90
51327;DHT22;37412;52.836;6.362;2023-08-07T12:31:14;17.50;99.90
51327;DHT22;37412;52.836;6.362;2023-08-07T12:34:00;17.30;99.90
51327;DHT22;37412;52.836;6.362;2023-08-07T12:36:46;17.20;99.90
51327;DHT22;37412;52.836;6.362;2023-08-07T12:39:32;17.20;99.90
51327;DHT22;37412;52.836;6.362;2023-08-07T12:42:18;17.30;99.90
51327;DHT22;37412;52.836;6.362;2023-08-07T12:45:04;17.30;99.90
51327;DHT22;37412;52.836;6.362;2023-08-07T12:47:50;17.20;99.90
51327;DHT22;37412;52.836;6.362;2023-08-07T12:50:37;17.00;99.90
51327;DHT22;37412;52.836;6.362;2023-08-07T12:53:23;16.70;99.90
51327;DHT22;37412;52.836;6.362;2023-08-07T12:56:08;16.50;99.90
51327;DHT22;37412;52.836;6.362;2023-08-07T12:58:54;16.40;99.90
51327;DHT22;37412;52.836;6.362;2023-08-07T13:01:40;16.30;99.90
51327;DHT22;37412;52.836;6.362;2023-08-07T13:04:26;16.30;99.90
51327;DHT22;37412;52.836;6.362;2023-08-07T13:07:12;16.40;99.90
51327;DHT22;37412;52.836;6.362;2023-08-07T13:09:58;16.40;99.90
51327;DHT22;37412;52.836;6.362;2023-08-07T13:12:47;16.40;99.90
51327;DHT22;37412;52.836;6.362;2023-08-07T13:15:33;16.40;99.90
51327;DHT22;37412;52.836;6.362;2023-08-07T13:18:19;16.50;99.90
51327;DHT22;37412;52.836;6.362;2023-08-07T13:21:05;16.40;99.90
51327;DHT22;37412;52.836;6.362;2023-08-07T13:23:51;16.30;99.90
51327;DHT22;37412;52.836;6.362;2023-08-07T13:26:37;16.20;99.90
51327;DHT22;37412;52.836;6.362;2023-08-07T13:29:24;16.00;99.90
51327;DHT22;37412;52.836;6.362;2023-08-07T13:32:11;15.80;99.90
51327;DHT22;37412;52.836;6.362;2023-08-07T13:34:57;15.90;99.90
51327;DHT22;37412;52.836;6.362;2023-08-07T13:37:43;15.90;99.90
51327;DHT22;37412;52.836;6.362;2023-08-07T13:40:29;16.00;99.90
51327;DHT22;37412;52.836;6.362;2023-08-07T13:43:15;15.90;99.90
51327;DHT22;37412;52.836;6.362;2023-08-07T13:46:01;15.90;99.90
51327;DHT22;37412;52.836;6.362;2023-08-07T13:48:47;16.10;99.90
51327;DHT22;37412;52.836;6.362;2023-08-07T13:51:33;16.40;99.90
51327;DHT22;37412;52.836;6.362;2023-08-07T13:54:19;16.60;99.90
51327;DHT22;37412;52.836;6.362;2023-08-07T13:57:05;16.60;99.90
51327;DHT22;37412;52.836;6.362;2023-08-07T13:59:51;16.50;99.90
51327;DHT22;37412;52.836;6.362;2023-08-07T14:02:39;16.50;99.90
51327;DHT22;37412;52.836;6.362;2023-08-07T14:05:25;16.70;99.90
51327;DHT22;37412;52.836;6.362;2023-08-07T14:08:11;16.90;99.90
51327;DHT22;37412;52.836;6.362;2023-08-07T14:10:57;16.80;99.90
51327;DHT22;37412;52.836;6.362;2023-08-07T14:13:43;16.70;99.90
51327;DHT22;37412;52.836;6.362;2023-08-07T14:16:31;16.50;99.90
51327;DHT22;37412;52.836;6.362;2023-08-07T14:19:17;16.40;99.90
51327;DHT22;37412;52.836;6.362;2023-08-07T14:22:03;16.40;99.90
51327;DHT22;37412;52.836;6.362;2023-08-07T14:24:49;16.40;99.90
51327;DHT22;37412;52.836;6.362;2023-08-07T14:27:35;16.90;99.90
51327;DHT22;37412;52.836;6.362;2023-08-07T14:30:21;16.20;99.90
51327;DHT22;37412;52.836;6.362;2023-08-07T14:33:07;16.10;99.90
51327;DHT22;37412;52.836;6.362;2023-08-07T14:35:53;16.10;99.90
51327;DHT22;37412;52.836;6.362;2023-08-07T14:38:39;16.20;99.90
51327;DHT22;37412;52.836;6.362;2023-08-07T14:41:25;16.40;99.90
51327;DHT22;37412;52.836;6.362;2023-08-07T14:44:11;17.30;99.90
51327;DHT22;37412;52.836;6.362;2023-08-07T14:47:00;16.70;99.90
51327;DHT22;37412;52.836;6.362;2023-08-07T14:49:46;17.00;99.90
51327;DHT22;37412;52.836;6.362;2023-08-07T14:52:31;17.30;99.90
51327;DHT22;37412;52.836;6.362;2023-08-07T14:55:18;17.60;99.90
51327;DHT22;37412;52.836;6.362;2023-08-07T14:58:04;17.60;99.90
51327;DHT22;37412;52.836;6.362;2023-08-07T15:00:54;17.80;99.90
51327;DHT22;37412;52.836;6.362;2023-08-07T15:03:40;17.70;99.90
51327;DHT22;37412;52.836;6.362;2023-08-07T15:06:25;17.50;99.90
51327;DHT22;37412;52.836;6.362;2023-08-07T15:09:11;17.30;99.90
51327;DHT22;37412;52.836;6.362;2023-08-07T15:11:57;17.20;99.90
51327;DHT22;37412;52.836;6.362;2023-08-07T15:14:43;17.10;99.90
51327;DHT22;37412;52.836;6.362;2023-08-07T15:17:29;17.00;99.90
51327;DHT22;37412;52.836;6.362;2023-08-07T15:20:15;17.00;99.90
51327;DHT22;37412;52.836;6.362;2023-08-07T15:23:02;16.90;99.90
51327;DHT22;37412;52.836;6.362;2023-08-07T15:25:48;17.00;99.90
51327;DHT22;37412;52.836;6.362;2023-08-07T15:28:34;17.00;99.90
51327;DHT22;37412;52.836;6.362;2023-08-07T15:31:20;17.10;99.90
51327;DHT22;37412;52.836;6.362;2023-08-07T15:34:06;16.90;99.90
51327;DHT22;37412;52.836;6.362;2023-08-07T15:36:52;16.90;99.90
51327;DHT22;37412;52.836;6.362;2023-08-07T15:39:38;17.00;99.90
51327;DHT22;37412;52.836;6.362;2023-08-07T15:42:24;17.00;99.90
51327;DHT22;37412;52.836;6.362;2023-08-07T15:45:10;17.00;99.90
51327;DHT22;37412;52.836;6.362;2023-08-07T15:47:57;17.00;99.90
51327;DHT22;37412;52.836;6.362;2023-08-07T15:50:43;17.00;99.90
51327;DHT22;37412;52.836;6.362;2023-08-07T15:53:29;17.00;99.90
51327;DHT22;37412;52.836;6.362;2023-08-07T15:56:15;17.90;99.90
51327;DHT22;37412;52.836;6.362;2023-08-07T15:59:01;17.40;99.90
51327;DHT22;37412;52.836;6.362;2023-08-07T16:01:48;17.30;99.90
51327;DHT22;37412;52.836;6.362;2023-08-07T16:04:34;17.30;99.90
51327;DHT22;37412;52.836;6.362;2023-08-07T16:07:20;17.20;99.90
51327;DHT22;37412;52.836;6.362;2023-08-07T16:10:07;17.00;99.90
51327;DHT22;37412;52.836;6.362;2023-08-07T16:12:54;17.00;99.90
51327;DHT22;37412;52.836;6.362;2023-08-07T16:15:40;17.00;99.90
51327;DHT22;37412;52.836;6.362;2023-08-07T16:18:30;16.90;99.90
51327;DHT22;37412;52.836;6.362;2023-08-07T16:21:16;16.90;99.90
51327;DHT22;37412;52.836;6.362;2023-08-07T16:24:02;16.90;99.90
51327;DHT22;37412;52.836;6.362;2023-08-07T16:26:48;16.90;99.90
51327;DHT22;37412;52.836;6.362;2023-08-07T16:29:34;17.10;99.90
51327;DHT22;37412;52.836;6.362;2023-08-07T16:32:20;16.80;99.90
51327;DHT22;37412;52.836;6.362;2023-08-07T16:35:07;17.00;99.90
51327;DHT22;37412;52.836;6.362;2023-08-07T16:37:53;17.00;99.90
51327;DHT22;37412;52.836;6.362;2023-08-07T16:40:39;17.00;99.90
51327;DHT22;37412;52.836;6.362;2023-08-07T16:43:25;17.00;99.90
51327;DHT22;37412;52.836;6.362;2023-08-07T16:46:11;17.00;99.90
51327;DHT22;37412;52.836;6.362;2023-08-07T16:48:57;17.00;99.90
51327;DHT22;37412;52.836;6.362;2023-08-07T16:51:43;16.90;99.90
51327;DHT22;37412;52.836;6.362;2023-08-07T16:54:30;16.80;99.90
51327;DHT22;37412;52.836;6.362;2023-08-07T16:57:16;16.80;99.90
51327;DHT22;37412;52.836;6.362;2023-08-07T17:00:03;16.80;99.90
51327;DHT22;37412;52.836;6.362;2023-08-07T17:02:51;16.90;99.90
51327;DHT22;37412;52.836;6.362;2023-08-07T17:05:37;16.90;99.90
51327;DHT22;37412;52.836;6.362;2023-08-07T17:08:23;16.90;99.90
51327;DHT22;37412;52.836;6.362;2023-08-07T17:11:11;16.90;99.90
51327;DHT22;37412;52.836;6.362;2023-08-07T17:13:57;16.70;99.90
51327;DHT22;37412;52.836;6.362;2023-08-07T17:16:43;16.70;99.90
51327;DHT22;37412;52.836;6.362;2023-08-07T17:19:29;16.70;99.90
51327;DHT22;37412;52.836;6.362;2023-08-07T17:22:15;16.80;99.90
51327;DHT22;37412;52.836;6.362;2023-08-07T17:25:01;16.60;99.90
51327;DHT22;37412;52.836;6.362;2023-08-07T17:27:47;16.60;99.90
51327;DHT22;37412;52.836;6.362;2023-08-07T17:30:32;16.50;99.90
51327;DHT22;37412;52.836;6.362;2023-08-07T17:33:18;16.40;99.90
51327;DHT22;37412;52.836;6.362;2023-08-07T17:36:04;16.40;99.90